createdAt,value
2022-08-12T00:00:52.059Z,22.20
2022-08-12T00:02:03.888Z,22.30
2022-08-12T00:03:06.059Z,22.30
2022-08-12T00:04:06.907Z,22.20
2022-08-12T00:05:08.021Z,22.30
2022-08-12T00:06:09.652Z,22.40
2022-08-12T00:07:10.853Z,22.20
2022-08-12T00:08:11.400Z,22.10
2022-08-12T00:09:11.958Z,22.00
2022-08-12T00:10:12.390Z,22.10
2022-08-12T00:11:12.892Z,22.30
2022-08-12T00:12:13.624Z,22.20
2022-08-12T00:13:15.351Z,22.50
2022-08-12T00:14:15.999Z,21.90
2022-08-12T00:15:16.466Z,21.90
2022-08-12T00:16:17.164Z,22.00
2022-08-12T00:17:17.711Z,21.90
2022-08-12T00:18:18.565Z,22.00
2022-08-12T00:19:18.935Z,21.90
2022-08-12T00:20:24.485Z,22.00
2022-08-12T00:21:31.686Z,21.80
2022-08-12T00:22:37.750Z,21.80
2022-08-12T00:23:39.433Z,22.10
2022-08-12T00:24:40.616Z,22.00
2022-08-12T00:26:01.224Z,21.90
2022-08-12T00:27:02.246Z,21.90
2022-08-12T00:28:05.362Z,21.80
2022-08-12T00:29:05.857Z,21.40
2022-08-12T00:30:06.414Z,21.90
2022-08-12T00:31:06.701Z,21.80
2022-08-12T00:32:07.146Z,21.90
2022-08-12T00:33:13.357Z,21.80
2022-08-12T00:34:16.101Z,21.80
2022-08-12T00:35:18.338Z,21.80
2022-08-12T00:36:35.056Z,21.80
2022-08-12T00:37:38.407Z,21.80
2022-08-12T00:38:38.925Z,21.80
2022-08-12T00:39:39.688Z,21.80
2022-08-12T00:40:40.816Z,21.90
2022-08-12T00:41:46.234Z,21.50
2022-08-12T00:42:28.798Z,21.80
2022-08-12T00:43:15.866Z,21.70
2022-08-12T00:43:59.639Z,21.70
2022-08-12T00:44:43.551Z,21.70
2022-08-12T00:45:26.030Z,21.50
2022-08-12T00:46:26.445Z,21.60
2022-08-12T00:47:08.605Z,21.60
2022-08-12T00:48:06.384Z,21.70
2022-08-12T00:49:31.686Z,21.70
2022-08-12T00:50:18.987Z,21.60
2022-08-12T00:51:03.085Z,21.60
2022-08-12T00:52:07.659Z,21.30
2022-08-12T00:52:52.984Z,21.60
2022-08-12T00:53:35.305Z,21.80
2022-08-12T00:54:18.080Z,21.50
2022-08-12T00:55:04.638Z,21.40
2022-08-12T00:56:31.423Z,21.50
2022-08-12T00:57:17.574Z,21.60
2022-08-12T00:58:03.134Z,21.50
2022-08-12T00:58:47.904Z,21.50
2022-08-12T00:59:29.610Z,21.40
2022-08-12T01:00:18.451Z,21.40
2022-08-12T01:01:07.418Z,21.60
2022-08-12T01:02:57.371Z,21.30
2022-08-12T01:03:59.599Z,21.40
2022-08-12T01:05:02.683Z,21.30
2022-08-12T01:06:04.753Z,21.40
2022-08-12T01:07:06.366Z,21.40
2022-08-12T01:08:07.783Z,21.40
2022-08-12T01:09:08.293Z,21.40
2022-08-12T01:10:12.849Z,21.40
2022-08-12T01:11:14.943Z,21.40
2022-08-12T01:11:56.658Z,21.30
2022-08-12T01:12:41.649Z,21.30
2022-08-12T01:13:24.914Z,21.30
2022-08-12T01:14:06.662Z,21.30
2022-08-12T01:14:48.531Z,21.30
2022-08-12T01:15:31.119Z,21.30
2022-08-12T01:16:17.402Z,21.10
2022-08-12T01:17:00.261Z,21.30
2022-08-12T01:17:45.235Z,21.30
2022-08-12T01:18:30.415Z,21.30
2022-08-12T01:19:12.957Z,21.30
2022-08-12T01:20:00.030Z,21.40
2022-08-12T01:20:53.097Z,21.30
2022-08-12T01:22:09.678Z,21.20
2022-08-12T01:23:48.598Z,21.20
2022-08-12T01:24:55.513Z,21.20
2022-08-12T01:25:56.060Z,21.30
2022-08-12T01:26:40.649Z,21.40
2022-08-12T01:27:24.174Z,21.20
2022-08-12T01:28:08.691Z,21.20
2022-08-12T01:28:55.195Z,21.10
2022-08-12T01:30:31.162Z,21.10
2022-08-12T01:31:16.492Z,21.20
2022-08-12T01:32:00.866Z,21.00
2022-08-12T01:32:46.482Z,21.10
2022-08-12T01:33:39.494Z,21.20
2022-08-12T01:34:33.342Z,20.60
2022-08-12T01:35:18.668Z,21.00
2022-08-12T01:36:08.445Z,21.00
2022-08-12T01:37:04.888Z,21.20
2022-08-12T01:38:43.804Z,21.00
2022-08-12T01:40:32.028Z,21.00
2022-08-12T01:40:48.828Z,21.00
2022-08-12T01:41:31.455Z,21.00
2022-08-12T01:42:16.821Z,21.00
2022-08-12T01:43:05.201Z,20.90
2022-08-12T01:43:48.188Z,21.00
2022-08-12T01:44:32.488Z,21.00
2022-08-12T01:45:17.428Z,20.90
2022-08-12T01:46:09.711Z,20.90
2022-08-12T01:47:10.019Z,20.90
2022-08-12T01:48:24.253Z,20.90
2022-08-12T01:49:36.477Z,20.80
2022-08-12T01:50:47.124Z,21.00
2022-08-12T01:52:19.807Z,20.90
2022-08-12T01:52:53.567Z,20.90
2022-08-12T01:54:04.407Z,20.90
2022-08-12T01:54:47.386Z,20.90
2022-08-12T01:56:15.998Z,20.80
2022-08-12T01:57:15.732Z,21.00
2022-08-12T01:58:58.131Z,20.80
2022-08-12T01:59:50.524Z,20.80
2022-08-12T02:00:55.533Z,20.70
2022-08-12T02:01:39.510Z,20.90
2022-08-12T02:02:30.576Z,20.80
2022-08-12T02:03:29.957Z,20.80
2022-08-12T02:04:50.326Z,20.80
2022-08-12T02:06:15.477Z,20.80
2022-08-12T02:07:22.002Z,20.80
2022-08-12T02:08:40.369Z,20.60
2022-08-12T02:10:02.875Z,20.70
2022-08-12T02:11:16.465Z,20.70
2022-08-12T02:12:33.096Z,20.70
2022-08-12T02:13:41.993Z,20.70
2022-08-12T02:14:56.855Z,20.70
2022-08-12T02:16:02.852Z,20.60
2022-08-12T02:17:01.845Z,20.80
2022-08-12T02:18:15.799Z,20.80
2022-08-12T02:21:01.391Z,20.60
2022-08-12T02:22:11.445Z,20.70
2022-08-12T02:22:55.429Z,20.60
2022-08-12T02:23:38.630Z,20.70
2022-08-12T02:24:22.542Z,20.50
2022-08-12T02:25:33.160Z,20.60
2022-08-12T02:26:16.298Z,20.40
2022-08-12T02:26:59.496Z,20.50
2022-08-12T02:27:53.686Z,20.60
2022-08-12T02:28:38.015Z,20.50
2022-08-12T02:29:20.610Z,20.00
2022-08-12T02:30:03.739Z,20.50
2022-08-12T02:30:45.465Z,20.50
2022-08-12T02:31:29.374Z,20.60
2022-08-12T02:32:12.353Z,20.60
2022-08-12T02:32:54.842Z,20.60
2022-08-12T02:33:39.113Z,19.80
2022-08-12T02:34:23.033Z,20.50
2022-08-12T02:35:48.576Z,20.40
2022-08-12T02:36:32.837Z,20.40
2022-08-12T02:37:15.618Z,20.50
2022-08-12T02:37:59.692Z,20.40
2022-08-12T02:38:43.533Z,20.40
2022-08-12T02:39:28.422Z,20.40
2022-08-12T02:40:12.980Z,20.40
2022-08-12T02:40:57.491Z,20.30
2022-08-12T02:42:29.001Z,20.30
2022-08-12T02:43:32.025Z,20.10
2022-08-12T02:44:16.204Z,20.40
2022-08-12T02:45:00.915Z,20.30
2022-08-12T02:46:03.267Z,20.50
2022-08-12T02:46:49.587Z,20.40
2022-08-12T02:48:51.152Z,20.30
2022-08-12T02:50:20.967Z,20.30
2022-08-12T02:51:06.302Z,20.30
2022-08-12T02:51:48.124Z,20.30
2022-08-12T02:52:32.331Z,20.30
2022-08-12T02:53:14.635Z,20.30
2022-08-12T02:54:03.079Z,20.30
2022-08-12T02:54:51.280Z,20.30
2022-08-12T02:55:36.083Z,20.30
2022-08-12T02:56:18.833Z,20.30
2022-08-12T02:57:01.087Z,19.90
2022-08-12T02:57:44.588Z,20.30
2022-08-12T02:58:33.517Z,20.20
2022-08-12T02:59:17.805Z,20.20
2022-08-12T03:00:03.426Z,20.10
2022-08-12T03:00:45.275Z,20.10
2022-08-12T03:01:34.321Z,20.20
2022-08-12T03:02:21.487Z,20.20
2022-08-12T03:03:06.332Z,20.20
2022-08-12T03:03:52.835Z,20.20
2022-08-12T03:04:51.471Z,20.20
2022-08-12T03:05:44.195Z,20.20
2022-08-12T03:06:32.100Z,20.20
2022-08-12T03:07:55.121Z,20.10
2022-08-12T03:08:32.697Z,20.10
2022-08-12T03:09:16.689Z,21.30
2022-08-12T03:10:13.051Z,20.20
2022-08-12T03:11:20.680Z,20.10
2022-08-12T03:12:05.146Z,20.10
2022-08-12T03:12:52.375Z,20.10
2022-08-12T03:13:38.955Z,20.00
2022-08-12T03:14:26.625Z,20.10
2022-08-12T03:15:11.871Z,20.10
2022-08-12T03:15:55.497Z,20.10
2022-08-12T03:16:39.423Z,20.20
2022-08-12T03:17:38.517Z,20.00
2022-08-12T03:18:28.683Z,20.10
2022-08-12T03:19:10.796Z,20.10
2022-08-12T03:20:10.538Z,20.10
2022-08-12T03:20:53.879Z,20.00
2022-08-12T03:21:55.313Z,20.00
2022-08-12T03:22:43.855Z,20.00
2022-08-12T03:23:29.704Z,20.00
2022-08-12T03:24:16.409Z,20.00
2022-08-12T03:25:03.737Z,19.40
2022-08-12T03:25:45.976Z,19.90
2022-08-12T03:26:30.042Z,20.00
2022-08-12T03:27:14.109Z,19.90
2022-08-12T03:27:57.753Z,19.80
2022-08-12T03:28:51.795Z,20.00
2022-08-12T03:30:32.901Z,19.70
2022-08-12T03:31:14.676Z,19.90
2022-08-12T03:32:00.484Z,19.90
2022-08-12T03:32:47.409Z,19.90
2022-08-12T03:33:31.162Z,19.90
2022-08-12T03:34:13.484Z,19.80
2022-08-12T03:34:58.699Z,19.70
2022-08-12T03:35:46.253Z,19.90
2022-08-12T03:36:29.718Z,19.90
2022-08-12T03:37:12.588Z,20.00
2022-08-12T03:38:05.590Z,19.90
2022-08-12T03:39:10.377Z,19.90
2022-08-12T03:39:52.270Z,19.80
2022-08-12T03:41:48.166Z,19.80
2022-08-12T03:42:43.009Z,19.90
2022-08-12T03:44:57.554Z,19.80
2022-08-12T03:45:57.979Z,19.20
2022-08-12T03:47:03.549Z,19.80
2022-08-12T03:48:19.009Z,19.70
2022-08-12T03:49:20.703Z,19.80
2022-08-12T03:50:22.567Z,19.80
2022-08-12T03:51:23.454Z,19.80
2022-08-12T03:52:24.924Z,19.70
2022-08-12T03:53:26.489Z,19.60
2022-08-12T03:55:27.491Z,19.70
2022-08-12T03:56:27.902Z,19.70
2022-08-12T03:58:29.466Z,19.60
2022-08-12T03:59:29.660Z,19.50
2022-08-12T04:00:28.379Z,18.70
2022-08-12T04:01:10.319Z,19.60
2022-08-12T04:01:57.374Z,19.60
2022-08-12T04:02:41.431Z,19.60
2022-08-12T04:03:43.845Z,19.70
2022-08-12T04:04:34.605Z,19.70
2022-08-12T04:05:21.625Z,19.60
2022-08-12T04:06:04.966Z,19.60
2022-08-12T04:06:46.867Z,19.60
2022-08-12T04:08:14.619Z,19.50
2022-08-12T04:08:58.923Z,19.60
2022-08-12T04:09:42.617Z,19.50
2022-08-12T04:10:47.263Z,19.60
2022-08-12T04:11:47.761Z,19.60
2022-08-12T04:12:48.291Z,19.50
2022-08-12T04:14:17.404Z,19.40
2022-08-12T04:15:00.469Z,19.60
2022-08-12T04:15:45.369Z,19.40
2022-08-12T04:16:27.123Z,19.50
2022-08-12T04:17:12.343Z,19.50
2022-08-12T04:18:06.688Z,19.50
2022-08-12T04:18:49.927Z,19.40
2022-08-12T04:19:31.842Z,19.50
2022-08-12T04:20:19.008Z,19.50
2022-08-12T04:21:02.229Z,19.50
2022-08-12T04:22:02.429Z,19.50
2022-08-12T04:22:46.041Z,19.30
2022-08-12T04:23:31.092Z,19.40
2022-08-12T04:24:13.110Z,19.40
2022-08-12T04:24:55.668Z,19.40
2022-08-12T04:25:39.498Z,19.30
2022-08-12T04:26:21.376Z,19.50
2022-08-12T04:27:08.466Z,19.40
2022-08-12T04:27:50.994Z,19.40
2022-08-12T04:28:33.405Z,19.40
2022-08-12T04:29:15.224Z,19.30
2022-08-12T04:30:31.589Z,19.50
2022-08-12T04:31:43.996Z,19.40
2022-08-12T04:33:10.085Z,19.40
2022-08-12T04:33:51.970Z,19.00
2022-08-12T04:34:33.843Z,19.40
2022-08-12T04:35:17.205Z,19.40
2022-08-12T04:35:59.058Z,19.40
2022-08-12T04:36:43.119Z,19.40
2022-08-12T04:37:24.966Z,19.50
2022-08-12T04:38:07.656Z,19.20
2022-08-12T04:38:50.194Z,19.40
2022-08-12T04:39:32.587Z,19.40
2022-08-12T04:40:17.160Z,19.90
2022-08-12T04:41:10.819Z,19.40
2022-08-12T04:41:58.653Z,19.40
2022-08-12T04:43:54.553Z,19.30
2022-08-12T04:44:25.050Z,19.40
2022-08-12T04:45:07.662Z,19.50
2022-08-12T04:45:49.779Z,19.40
2022-08-12T04:46:34.782Z,19.40
2022-08-12T04:47:18.310Z,19.40
2022-08-12T04:48:01.885Z,19.40
2022-08-12T04:48:44.491Z,19.40
2022-08-12T04:49:30.247Z,19.40
2022-08-12T04:50:34.501Z,19.40
2022-08-12T04:51:19.587Z,19.10
2022-08-12T04:52:03.209Z,19.40
2022-08-12T04:52:45.241Z,19.30
2022-08-12T04:53:27.638Z,19.40
2022-08-12T04:54:09.400Z,19.10
2022-08-12T04:54:51.979Z,19.50
2022-08-12T04:55:34.814Z,19.50
2022-08-12T04:56:17.179Z,19.40
2022-08-12T04:57:04.183Z,19.30
2022-08-12T04:57:46.675Z,18.90
2022-08-12T04:58:30.024Z,19.40
2022-08-12T04:59:15.959Z,19.30
2022-08-12T04:59:57.695Z,19.40
2022-08-12T05:00:40.045Z,19.40
2022-08-12T05:01:21.976Z,19.40
2022-08-12T05:02:04.346Z,19.30
2022-08-12T05:02:52.345Z,19.50
2022-08-12T05:03:46.218Z,19.40
2022-08-12T05:04:30.320Z,19.50
2022-08-12T05:05:23.601Z,19.40
2022-08-12T05:06:06.930Z,19.50
2022-08-12T05:06:48.879Z,19.50
2022-08-12T05:07:30.682Z,19.50
2022-08-12T05:08:16.188Z,19.50
2022-08-12T05:09:01.467Z,19.60
2022-08-12T05:10:00.670Z,19.50
2022-08-12T05:10:46.458Z,19.40
2022-08-12T05:11:28.414Z,19.50
2022-08-12T05:12:11.270Z,19.40
2022-08-12T05:12:57.753Z,19.50
2022-08-12T05:13:40.807Z,19.50
2022-08-12T05:14:22.585Z,19.50
2022-08-12T05:15:19.868Z,19.60
2022-08-12T05:16:09.561Z,19.50
2022-08-12T05:16:51.322Z,19.50
2022-08-12T05:17:33.356Z,19.50
2022-08-12T05:18:19.366Z,19.60
2022-08-12T05:19:01.696Z,19.60
2022-08-12T05:19:44.282Z,19.60
2022-08-12T05:20:26.238Z,19.60
2022-08-12T05:21:09.110Z,19.60
2022-08-12T05:21:50.941Z,19.60
2022-08-12T05:22:38.169Z,19.50
2022-08-12T05:23:22.267Z,19.60
2022-08-12T05:24:04.119Z,19.60
2022-08-12T05:24:46.434Z,19.70
2022-08-12T05:25:28.458Z,19.60
2022-08-12T05:26:10.918Z,19.70
2022-08-12T05:26:52.678Z,19.60
2022-08-12T05:27:34.733Z,19.70
2022-08-12T05:28:18.085Z,19.60
2022-08-12T05:28:59.797Z,19.70
2022-08-12T05:30:06.302Z,19.70
2022-08-12T05:30:46.022Z,19.70
2022-08-12T05:31:47.360Z,19.70
2022-08-12T05:32:29.490Z,19.70
2022-08-12T05:33:12.594Z,19.70
2022-08-12T05:33:54.382Z,19.70
2022-08-12T05:34:36.055Z,19.80
2022-08-12T05:35:17.851Z,19.70
2022-08-12T05:36:08.680Z,19.70
2022-08-12T05:36:50.363Z,19.90
2022-08-12T05:37:35.457Z,19.80
2022-08-12T05:38:37.414Z,19.80
2022-08-12T05:39:19.183Z,19.80
2022-08-12T05:40:03.037Z,19.80
2022-08-12T05:40:46.421Z,19.90
2022-08-12T05:41:32.032Z,19.80
2022-08-12T05:42:14.073Z,19.90
2022-08-12T05:42:56.258Z,19.90
2022-08-12T05:43:37.933Z,19.50
2022-08-12T05:44:19.639Z,19.90
2022-08-12T05:45:01.431Z,19.80
2022-08-12T05:45:44.909Z,19.90
2022-08-12T05:46:28.782Z,19.90
2022-08-12T05:47:12.564Z,19.90
2022-08-12T05:47:54.595Z,19.90
2022-08-12T05:48:36.410Z,19.80
2022-08-12T05:49:18.166Z,19.90
2022-08-12T05:49:59.953Z,20.00
2022-08-12T05:50:43.211Z,20.00
2022-08-12T05:51:40.629Z,20.00
2022-08-12T05:52:23.356Z,20.00
2022-08-12T05:53:06.919Z,20.00
2022-08-12T05:53:48.763Z,20.00
2022-08-12T05:54:47.707Z,20.00
2022-08-12T05:55:32.158Z,20.10
2022-08-12T05:56:33.874Z,20.10
2022-08-12T05:57:15.568Z,20.10
2022-08-12T05:57:58.286Z,20.00
2022-08-12T05:58:39.981Z,20.10
2022-08-12T05:59:21.925Z,20.10
2022-08-12T06:00:05.765Z,20.10
2022-08-12T06:00:47.499Z,20.20
2022-08-12T06:02:10.842Z,20.20
2022-08-12T06:02:31.946Z,20.20
2022-08-12T06:03:17.374Z,20.20
2022-08-12T06:04:01.415Z,20.20
2022-08-12T06:04:43.177Z,20.30
2022-08-12T06:05:24.895Z,20.30
2022-08-12T06:06:07.151Z,20.30
2022-08-12T06:06:53.066Z,20.30
2022-08-12T06:08:01.756Z,20.30
2022-08-12T06:08:48.464Z,20.20
2022-08-12T06:10:13.576Z,20.20
2022-08-12T06:10:57.024Z,20.20
2022-08-12T06:12:04.571Z,20.30
2022-08-12T06:12:46.691Z,20.30
2022-08-12T06:13:54.091Z,20.30
2022-08-12T06:14:31.647Z,20.40
2022-08-12T06:15:13.376Z,20.30
2022-08-12T06:15:55.331Z,20.40
2022-08-12T06:16:37.056Z,20.40
2022-08-12T06:17:18.831Z,20.50
2022-08-12T06:18:13.582Z,20.40
2022-08-12T06:18:57.658Z,20.40
2022-08-12T06:20:27.044Z,20.50
2022-08-12T06:20:41.498Z,20.50
2022-08-12T06:21:23.394Z,20.50
2022-08-12T06:22:05.273Z,20.50
2022-08-12T06:22:47.839Z,20.50
2022-08-12T06:23:30.760Z,20.60
2022-08-12T06:24:14.141Z,20.60
2022-08-12T06:24:55.860Z,20.50
2022-08-12T06:25:37.790Z,20.60
2022-08-12T06:26:20.669Z,20.70
2022-08-12T06:27:03.353Z,20.50
2022-08-12T06:28:08.000Z,20.60
2022-08-12T06:28:51.123Z,20.70
2022-08-12T06:30:08.523Z,20.70
2022-08-12T06:30:39.179Z,20.60
2022-08-12T06:31:26.145Z,20.60
2022-08-12T06:32:08.524Z,20.80
2022-08-12T06:33:18.322Z,20.80
2022-08-12T06:34:00.488Z,20.80
2022-08-12T06:35:24.190Z,20.80
2022-08-12T06:36:00.603Z,20.90
2022-08-12T06:36:44.233Z,20.90
2022-08-12T06:37:26.024Z,20.80
2022-08-12T06:38:16.044Z,20.90
2022-08-12T06:38:57.789Z,21.00
2022-08-12T06:39:39.529Z,21.00
2022-08-12T06:40:41.407Z,20.90
2022-08-12T06:41:41.825Z,21.00
2022-08-12T06:42:49.496Z,21.10
2022-08-12T06:44:06.431Z,21.10
2022-08-12T06:44:33.495Z,21.00
2022-08-12T06:45:15.866Z,21.10
2022-08-12T06:46:00.562Z,21.10
2022-08-12T06:46:43.535Z,21.10
2022-08-12T06:47:25.265Z,21.20
2022-08-12T06:48:08.441Z,21.20
2022-08-12T06:48:53.422Z,21.30
2022-08-12T06:49:36.856Z,21.20
2022-08-12T06:50:18.723Z,21.30
2022-08-12T06:51:03.174Z,21.10
2022-08-12T06:51:54.483Z,21.30
2022-08-12T06:52:38.787Z,21.40
2022-08-12T06:53:21.190Z,21.30
2022-08-12T06:54:03.089Z,21.30
2022-08-12T06:54:45.735Z,21.40
2022-08-12T06:55:27.459Z,21.50
2022-08-12T06:56:12.405Z,21.50
2022-08-12T06:57:05.191Z,21.50
2022-08-12T06:58:09.903Z,21.60
2022-08-12T06:58:52.560Z,21.60
2022-08-12T06:59:35.546Z,21.60
2022-08-12T07:00:28.510Z,21.70
2022-08-12T07:01:15.025Z,21.70
2022-08-12T07:01:56.918Z,21.70
2022-08-12T07:02:38.860Z,21.80
2022-08-12T07:03:25.581Z,21.70
2022-08-12T07:04:35.374Z,21.70
2022-08-12T07:05:09.471Z,21.80
2022-08-12T07:05:51.702Z,21.80
2022-08-12T07:06:33.415Z,21.80
2022-08-12T07:07:15.477Z,22.10
2022-08-12T07:08:05.110Z,21.80
2022-08-12T07:08:52.202Z,21.90
2022-08-12T07:10:06.653Z,22.00
2022-08-12T07:10:53.408Z,22.10
2022-08-12T07:11:35.126Z,22.00
2022-08-12T07:12:19.234Z,22.00
2022-08-12T07:13:02.834Z,22.10
2022-08-12T07:14:12.011Z,22.10
2022-08-12T07:14:51.731Z,22.10
2022-08-12T07:15:33.846Z,22.10
2022-08-12T07:16:17.735Z,22.10
2022-08-12T07:17:02.355Z,22.20
2022-08-12T07:17:44.100Z,22.20
2022-08-12T07:18:33.021Z,22.30
2022-08-12T07:19:14.742Z,22.20
2022-08-12T07:20:03.944Z,22.20
2022-08-12T07:20:52.998Z,22.40
2022-08-12T07:21:59.888Z,22.40
2022-08-12T07:22:39.698Z,22.40
2022-08-12T07:23:21.729Z,22.40
2022-08-12T07:24:03.669Z,22.40
2022-08-12T07:25:05.404Z,22.40
2022-08-12T07:25:47.201Z,22.50
2022-08-12T07:26:29.346Z,22.60
2022-08-12T07:27:11.046Z,22.50
2022-08-12T07:27:55.360Z,22.40
2022-08-12T07:28:39.859Z,22.50
2022-08-12T07:29:22.947Z,22.60
2022-08-12T07:30:05.569Z,22.60
2022-08-12T07:30:51.036Z,22.70
2022-08-12T07:31:32.752Z,22.50
2022-08-12T07:32:15.122Z,22.50
2022-08-12T07:33:01.710Z,22.60
2022-08-12T07:33:43.671Z,22.80
2022-08-12T07:34:26.398Z,22.70
2022-08-12T07:35:08.538Z,22.70
2022-08-12T07:35:52.833Z,22.80
2022-08-12T07:36:35.363Z,22.70
2022-08-12T07:37:17.841Z,22.70
2022-08-12T07:38:00.757Z,22.80
2022-08-12T07:38:46.824Z,22.90
2022-08-12T07:39:29.740Z,22.70
2022-08-12T07:40:12.264Z,22.80
2022-08-12T07:41:08.341Z,22.80
2022-08-12T07:41:57.425Z,22.90
2022-08-12T07:42:41.085Z,22.90
2022-08-12T07:43:23.264Z,22.90
2022-08-12T07:44:07.474Z,22.90
2022-08-12T07:44:51.746Z,22.80
2022-08-12T07:45:33.594Z,22.90
2022-08-12T07:46:20.479Z,23.00
2022-08-12T07:47:03.197Z,23.10
2022-08-12T07:47:45.067Z,23.00
2022-08-12T07:48:27.768Z,23.20
2022-08-12T07:49:12.627Z,23.00
2022-08-12T07:50:04.722Z,23.10
2022-08-12T07:50:48.600Z,23.20
2022-08-12T07:51:30.449Z,23.30
2022-08-12T07:52:12.326Z,23.30
2022-08-12T07:52:54.039Z,23.30
2022-08-12T07:53:51.982Z,23.30
2022-08-12T07:54:38.411Z,23.30
2022-08-12T07:55:20.196Z,23.50
2022-08-12T07:56:04.074Z,23.30
2022-08-12T07:56:45.798Z,23.30
2022-08-12T07:57:27.726Z,23.40
2022-08-12T07:58:09.585Z,23.30
2022-08-12T07:58:51.968Z,23.40
2022-08-12T07:59:35.763Z,23.40
2022-08-12T08:00:18.299Z,23.40
2022-08-12T08:01:00.692Z,23.50
2022-08-12T08:01:43.206Z,23.50
2022-08-12T08:02:26.486Z,23.50
2022-08-12T08:03:08.968Z,23.50
2022-08-12T08:04:18.505Z,23.50
2022-08-12T08:05:01.144Z,23.60
2022-08-12T08:05:49.530Z,23.70
2022-08-12T08:06:32.194Z,23.50
2022-08-12T08:07:16.807Z,23.70
2022-08-12T08:08:02.291Z,23.70
2022-08-12T08:08:44.272Z,23.70
2022-08-12T08:09:26.701Z,23.60
2022-08-12T08:10:11.534Z,24.10
2022-08-12T08:11:18.386Z,23.80
2022-08-12T08:12:19.707Z,23.90
2022-08-12T08:13:05.183Z,23.90
2022-08-12T08:13:48.886Z,24.00
2022-08-12T08:14:31.777Z,24.10
2022-08-12T08:15:15.094Z,23.90
2022-08-12T08:16:04.430Z,24.00
2022-08-12T08:16:46.364Z,24.10
2022-08-12T08:17:28.138Z,24.00
2022-08-12T08:18:14.874Z,24.20
2022-08-12T08:19:19.256Z,24.20
2022-08-12T08:20:03.969Z,24.20
2022-08-12T08:20:46.407Z,24.10
2022-08-12T08:21:29.411Z,24.30
2022-08-12T08:22:11.185Z,24.20
2022-08-12T08:22:53.082Z,24.20
2022-08-12T08:23:56.185Z,24.20
2022-08-12T08:24:39.809Z,24.40
2022-08-12T08:25:37.278Z,24.40
2022-08-12T08:26:22.415Z,24.50
2022-08-12T08:27:04.450Z,24.40
2022-08-12T08:27:49.543Z,24.40
2022-08-12T08:28:36.489Z,24.40
2022-08-12T08:29:20.039Z,24.40
2022-08-12T08:30:03.050Z,24.30
2022-08-12T08:30:46.487Z,24.40
2022-08-12T08:31:28.783Z,24.50
2022-08-12T08:32:11.327Z,24.50
2022-08-12T08:32:53.091Z,24.50
2022-08-12T08:34:05.499Z,24.60
2022-08-12T08:34:54.017Z,24.60
2022-08-12T08:35:46.579Z,24.60
2022-08-12T08:36:29.234Z,24.50
2022-08-12T08:37:15.612Z,24.70
2022-08-12T08:38:14.768Z,24.60
2022-08-12T08:39:13.364Z,24.50
2022-08-12T08:40:15.105Z,24.60
2022-08-12T08:41:15.258Z,24.70
2022-08-12T08:42:35.590Z,24.70
2022-08-12T08:43:17.330Z,24.90
2022-08-12T08:44:00.378Z,24.90
2022-08-12T08:44:42.796Z,24.80
2022-08-12T08:45:24.586Z,24.80
2022-08-12T08:46:06.391Z,25.00
2022-08-12T08:46:49.604Z,25.10
2022-08-12T08:47:31.337Z,25.00
2022-08-12T08:48:14.076Z,25.20
2022-08-12T08:48:59.589Z,25.10
2022-08-12T08:49:41.511Z,25.10
2022-08-12T08:50:23.351Z,25.10
2022-08-12T08:51:06.060Z,25.30
2022-08-12T08:51:47.828Z,25.20
2022-08-12T08:52:38.914Z,25.20
2022-08-12T08:53:28.266Z,25.10
2022-08-12T08:54:12.851Z,25.20
2022-08-12T08:54:54.654Z,25.40
2022-08-12T08:56:03.304Z,25.50
2022-08-12T08:56:46.270Z,25.40
2022-08-12T08:57:44.198Z,25.50
2022-08-12T08:58:26.490Z,25.50
2022-08-12T08:59:08.575Z,25.50
2022-08-12T08:59:51.723Z,25.60
2022-08-12T09:00:33.735Z,25.50
2022-08-12T09:01:20.836Z,25.50
2022-08-12T09:02:03.169Z,25.50
2022-08-12T09:02:49.313Z,25.40
2022-08-12T09:05:08.016Z,25.60
2022-08-12T09:05:13.207Z,25.60
2022-08-12T09:06:02.366Z,25.70
2022-08-12T09:06:53.397Z,25.60
2022-08-12T09:07:51.559Z,25.70
2022-08-12T09:08:42.124Z,25.80
2022-08-12T09:10:32.735Z,25.80
2022-08-12T09:12:06.929Z,25.90
2022-08-12T09:12:54.950Z,26.00
2022-08-12T09:14:47.137Z,26.00
2022-08-12T09:15:36.323Z,26.00
2022-08-12T09:16:20.374Z,25.90
2022-08-12T09:17:02.429Z,26.10
2022-08-12T09:17:55.952Z,26.00
2022-08-12T09:18:41.326Z,26.10
2022-08-12T09:19:27.228Z,26.10
2022-08-12T09:20:16.038Z,26.00
2022-08-12T09:20:57.859Z,26.10
2022-08-12T09:21:54.779Z,26.10
2022-08-12T09:22:37.202Z,26.30
2022-08-12T09:23:58.523Z,26.20
2022-08-12T09:24:21.362Z,26.30
2022-08-12T09:25:07.106Z,26.40
2022-08-12T09:25:49.504Z,26.30
2022-08-12T09:26:31.924Z,26.30
2022-08-12T09:27:20.003Z,26.30
2022-08-12T09:28:05.197Z,26.50
2022-08-12T09:28:53.067Z,26.40
2022-08-12T09:30:09.907Z,26.50
2022-08-12T09:30:41.181Z,26.40
2022-08-12T09:32:03.585Z,26.50
2022-08-12T09:32:55.604Z,26.40
2022-08-12T09:34:25.313Z,26.50
2022-08-12T09:34:42.633Z,26.60
2022-08-12T09:35:28.587Z,26.70
2022-08-12T09:36:10.473Z,26.60
2022-08-12T09:37:00.706Z,26.60
2022-08-12T09:37:57.629Z,26.70
2022-08-12T09:38:59.152Z,26.40
2022-08-12T09:40:05.413Z,26.60
2022-08-12T09:41:02.234Z,26.80
2022-08-12T09:42:32.852Z,26.80
2022-08-12T09:43:27.814Z,26.80
2022-08-12T09:44:47.555Z,27.00
2022-08-12T09:46:19.962Z,26.90
2022-08-12T09:46:51.391Z,26.90
2022-08-12T09:47:33.586Z,26.90
2022-08-12T09:48:20.428Z,27.00
2022-08-12T09:49:13.458Z,27.00
2022-08-12T09:49:58.784Z,26.90
2022-08-12T09:50:41.581Z,26.90
2022-08-12T09:51:37.406Z,27.00
2022-08-12T09:52:25.285Z,27.00
2022-08-12T09:53:16.347Z,27.00
2022-08-12T09:54:08.426Z,27.10
2022-08-12T09:55:02.664Z,27.30
2022-08-12T09:56:06.633Z,27.20
2022-08-12T09:56:58.550Z,27.20
2022-08-12T09:58:07.723Z,27.20
2022-08-12T09:58:59.901Z,27.40
2022-08-12T10:00:15.655Z,27.40
2022-08-12T10:00:51.949Z,27.40
2022-08-12T10:02:42.294Z,27.50
2022-08-12T10:02:57.644Z,27.50
2022-08-12T10:04:03.358Z,27.40
2022-08-12T10:04:51.573Z,27.60
2022-08-12T10:06:26.849Z,27.50
2022-08-12T10:06:55.597Z,27.50
2022-08-12T10:07:40.909Z,27.50
2022-08-12T10:08:27.290Z,27.50
2022-08-12T10:09:10.272Z,27.70
2022-08-12T10:09:58.570Z,27.60
2022-08-12T10:11:00.803Z,27.80
2022-08-12T10:12:09.939Z,27.70
2022-08-12T10:13:35.216Z,28.00
2022-08-12T10:14:19.536Z,27.90
2022-08-12T10:16:02.748Z,27.80
2022-08-12T10:16:29.156Z,28.00
2022-08-12T10:17:12.492Z,27.70
2022-08-12T10:17:56.741Z,27.70
2022-08-12T10:18:55.065Z,27.80
2022-08-12T10:19:37.892Z,27.90
2022-08-12T10:20:19.815Z,27.90
2022-08-12T10:21:04.639Z,27.90
2022-08-12T10:21:46.479Z,27.90
2022-08-12T10:22:36.858Z,28.10
2022-08-12T10:23:40.413Z,27.90
2022-08-12T10:24:23.301Z,28.00
2022-08-12T10:25:24.066Z,28.10
2022-08-12T10:26:44.970Z,27.90
2022-08-12T10:28:04.797Z,28.00
2022-08-12T10:30:01.992Z,27.90
2022-08-12T10:30:42.157Z,28.20
2022-08-12T10:31:16.276Z,28.10
2022-08-12T10:32:20.853Z,28.20
2022-08-12T10:33:00.490Z,28.20
2022-08-12T10:34:04.917Z,28.10
2022-08-12T10:34:53.388Z,28.10
2022-08-12T10:35:41.363Z,28.10
2022-08-12T10:36:40.483Z,28.20
2022-08-12T10:38:32.523Z,28.30
2022-08-12T10:38:37.173Z,28.40
2022-08-12T10:40:03.037Z,28.30
2022-08-12T10:40:31.505Z,28.30
2022-08-12T10:41:57.876Z,28.20
2022-08-12T10:43:00.401Z,28.20
2022-08-12T10:43:54.835Z,28.30
2022-08-12T10:44:37.923Z,28.30
2022-08-12T10:45:19.630Z,28.40
2022-08-12T10:46:13.517Z,28.50
2022-08-12T10:46:56.875Z,28.30
2022-08-12T10:48:07.083Z,28.40
2022-08-12T10:48:40.390Z,28.50
2022-08-12T10:50:02.792Z,28.70
2022-08-12T10:51:00.334Z,28.40
2022-08-12T10:52:03.399Z,28.50
2022-08-12T10:52:38.943Z,28.50
2022-08-12T10:53:44.018Z,28.70
2022-08-12T10:54:27.671Z,28.70
2022-08-12T10:55:13.486Z,28.70
2022-08-12T10:55:56.102Z,28.70
2022-08-12T10:56:40.577Z,28.70
2022-08-12T10:58:13.101Z,28.70
2022-08-12T10:58:31.857Z,28.70
2022-08-12T10:59:13.808Z,28.70
2022-08-12T11:00:31.262Z,28.70
2022-08-12T11:01:50.253Z,28.70
2022-08-12T11:04:25.626Z,28.90
2022-08-12T11:04:28.132Z,28.80
2022-08-12T11:04:28.357Z,28.90
2022-08-12T11:07:02.721Z,28.80
2022-08-12T11:07:07.641Z,28.90
2022-08-12T11:08:34.274Z,28.80
2022-08-12T11:08:38.073Z,28.80
2022-08-12T11:09:17.872Z,28.70
2022-08-12T11:10:19.577Z,28.80